Time;durP1;ratioP1;P1;durP2;ratioP2;P2;SDS_P1;SDS_P2;PMS_P1;PMS_P2;Temp;Humidity;BMP_temperature;BMP_pressure;BME280_temperature;BME280_humidity;BME280_pressure;Samples;Min_cycle;Max_cycle;Signal;HPM_P1;HPM_P2
2020/12/06 00:01:47;;;;;;;47.77;28.90;;;6.40;93.60;;;;;;4986450;28;20203;-81
2020/12/06 00:04:19;;;;;;;51.57;29.63;;;6.40;93.70;;;;;;4970842;28;20203;-82
2020/12/06 00:06:48;;;;;;;52.03;30.07;;;6.40;93.70;;;;;;4993573;28;20294;-80
2020/12/06 00:09:17;;;;;;;44.67;29.37;;;6.40;93.70;;;;;;4986865;28;20196;-84
2020/12/06 00:11:47;;;;;;;43.63;27.93;;;6.40;93.60;;;;;;4983069;28;20220;-84
2020/12/06 00:14:16;;;;;;;50.50;31.00;;;6.40;93.70;;;;;;4987750;28;20199;-81
2020/12/06 00:16:44;;;;;;;48.03;28.63;;;6.30;93.60;;;;;;5002036;28;20192;-82
2020/12/06 00:19:13;;;;;;;49.77;28.77;;;6.30;93.60;;;;;;5000281;28;20256;-83
2020/12/06 00:21:44;;;;;;;44.87;27.83;;;6.30;93.60;;;;;;5001776;28;20192;-83
2020/12/06 00:24:16;;;;;;;47.93;29.30;;;6.10;93.60;;;;;;4997711;28;20844;-83
2020/12/06 00:26:46;;;;;;;44.63;28.30;;;6.20;93.70;;;;;;4982981;28;20348;-84
2020/12/06 00:29:14;;;;;;;47.47;29.83;;;6.30;93.70;;;;;;4987167;28;20219;-81
2020/12/06 00:31:41;;;;;;;42.27;27.67;;;6.30;93.70;;;;;;4995515;28;20286;-83
2020/12/06 00:34:09;;;;;;;47.90;29.20;;;6.30;93.70;;;;;;4995829;28;20195;-82
2020/12/06 00:36:38;;;;;;;47.90;28.77;;;6.30;93.70;;;;;;4992021;28;20403;-81
2020/12/06 00:39:06;;;;;;;44.97;28.17;;;6.20;93.70;;;;;;4975593;28;20280;-84
2020/12/06 00:41:34;;;;;;;44.80;28.33;;;6.30;93.70;;;;;;4981398;28;20208;-82
2020/12/06 00:44:02;;;;;;;42.30;27.50;;;6.40;93.70;;;;;;4981997;28;20630;-82
2020/12/06 00:46:33;;;;;;;44.17;27.30;;;6.40;93.60;;;;;;4977147;28;20231;-83
2020/12/06 00:49:01;;;;;;;44.33;26.17;;;6.40;93.60;;;;;;4982025;28;20203;-81
2020/12/06 00:51:29;;;;;;;42.13;26.50;;;6.30;93.60;;;;;;4972470;28;20227;-84
2020/12/06 00:53:58;;;;;;;41.73;27.23;;;6.40;93.60;;;;;;4987695;28;20298;-83
2020/12/06 00:56:26;;;;;;;44.37;27.33;;;6.30;93.50;;;;;;4981955;28;20225;-82
2020/12/06 00:58:54;;;;;;;44.17;27.73;;;6.30;93.50;;;;;;4981839;28;20291;-82
2020/12/06 01:01:21;;;;;;;43.17;26.40;;;6.30;93.50;;;;;;4985083;28;20263;-81
2020/12/06 01:03:52;;;;;;;46.03;26.27;;;6.30;93.60;;;;;;4977032;28;20715;-84
2020/12/06 01:06:20;;;;;;;40.27;26.20;;;6.20;93.60;;;;;;4987099;28;20234;-82
2020/12/06 01:08:48;;;;;;;43.20;26.03;;;6.20;93.60;;;;;;4995091;28;20215;-82
2020/12/06 01:11:20;;;;;;;43.40;27.13;;;6.20;93.60;;;;;;4987529;28;20199;-84
2020/12/06 01:13:47;;;;;;;41.60;26.27;;;6.20;93.60;;;;;;4993488;28;20283;-86
2020/12/06 01:16:15;;;;;;;41.60;26.00;;;6.20;93.60;;;;;;4989808;28;20212;-84
2020/12/06 01:18:43;;;;;;;42.53;26.43;;;6.20;93.60;;;;;;4988908;28;20204;-82
2020/12/06 01:21:14;;;;;;;42.93;25.97;;;6.20;93.60;;;;;;5006128;28;20192;-85
2020/12/06 01:23:42;;;;;;;42.73;26.00;;;6.20;93.70;;;;;;4991142;28;20188;-82
2020/12/06 01:26:10;;;;;;;41.93;27.10;;;6.20;93.70;;;;;;4990269;28;20220;-83
2020/12/06 01:28:42;;;;;;;43.73;25.37;;;6.30;93.70;;;;;;4988710;28;20204;-82
2020/12/06 01:31:10;;;;;;;40.63;25.27;;;6.30;93.60;;;;;;4986176;28;20224;-82
2020/12/06 01:33:38;;;;;;;41.30;25.33;;;6.40;93.60;;;;;;4990916;28;20200;-81
2020/12/06 01:36:06;;;;;;;41.37;27.37;;;6.30;93.50;;;;;;4981120;28;20204;-82
2020/12/06 01:38:34;;;;;;;42.23;26.43;;;6.30;93.50;;;;;;4985246;28;20192;-85
2020/12/06 01:41:02;;;;;;;42.53;26.33;;;6.20;93.50;;;;;;4979820;28;20204;-82
2020/12/06 01:43:30;;;;;;;43.33;27.00;;;6.20;93.50;;;;;;4985035;28;20419;-84
2020/12/06 01:45:59;;;;;;;43.13;26.13;;;6.20;93.60;;;;;;4984103;28;20212;-82
2020/12/06 01:48:27;;;;;;;42.03;26.97;;;6.20;93.60;;;;;;4982493;28;20221;-81
2020/12/06 01:50:56;;;;;;;46.30;27.20;;;6.10;93.60;;;;;;4976130;28;20214;-85
2020/12/06 01:53:24;;;;;;;49.17;27.03;;;6.10;93.70;;;;;;4990996;28;20211;-81
2020/12/06 01:55:53;;;;;;;45.20;27.47;;;6.10;93.70;;;;;;4979423;28;20612;-83
2020/12/06 01:58:25;;;;;;;43.10;27.47;;;6.10;93.70;;;;;;4987181;28;20196;-81
2020/12/06 02:00:54;;;;;;;42.00;26.23;;;6.20;93.80;;;;;;4993047;28;20213;-80
2020/12/06 02:03:24;;;;;;;47.77;28.13;;;6.20;93.70;;;;;;4988201;28;20231;-83
2020/12/06 02:05:51;;;;;;;46.40;27.70;;;6.20;93.70;;;;;;4995100;28;20953;-82
2020/12/06 02:08:19;;;;;;;44.83;27.50;;;6.20;93.70;;;;;;4986222;28;20919;-81
2020/12/06 02:10:47;;;;;;;45.73;27.27;;;6.30;93.60;;;;;;4982404;28;20208;-82
2020/12/06 02:13:15;;;;;;;43.33;25.83;;;6.30;93.60;;;;;;4990529;28;20207;-81
2020/12/06 02:15:49;;;;;;;44.00;26.57;;;6.30;93.60;;;;;;4976271;28;20251;-82
2020/12/06 02:18:17;;;;;;;42.03;25.83;;;6.30;93.50;;;;;;4993655;28;20254;-82
2020/12/06 02:20:50;;;;;;;43.40;26.20;;;6.30;93.50;;;;;;4977170;28;20216;-85
2020/12/06 02:23:17;;;;;;;40.77;26.47;;;6.40;93.50;;;;;;4991591;28;20255;-82
2020/12/06 02:25:47;;;;;;;43.03;26.37;;;6.40;93.50;;;;;;4988297;28;20224;-82
2020/12/06 02:28:21;;;;;;;43.30;26.47;;;6.40;93.50;;;;;;4994658;28;20555;-81
2020/12/06 02:30:49;;;;;;;43.67;26.30;;;6.40;93.40;;;;;;4989366;28;20240;-81
2020/12/06 02:33:16;;;;;;;41.60;26.13;;;6.40;93.40;;;;;;4985375;28;20219;-82
2020/12/06 02:35:44;;;;;;;41.10;26.40;;;6.50;93.40;;;;;;4974634;28;20529;-83
2020/12/06 02:38:13;;;;;;;42.17;26.13;;;6.50;93.30;;;;;;4987788;28;20682;-83
2020/12/06 02:40:41;;;;;;;39.00;22.77;;;6.50;93.30;;;;;;4983862;28;20247;-85
2020/12/06 02:43:09;;;;;;;40.67;25.17;;;6.50;93.30;;;;;;4986339;28;20205;-83
2020/12/06 02:45:37;;;;;;;40.87;24.47;;;6.60;93.20;;;;;;5006494;28;20196;-83
2020/12/06 02:48:07;;;;;;;38.43;25.00;;;6.70;93.20;;;;;;4995513;28;20185;-81
2020/12/06 02:50:35;;;;;;;38.37;23.80;;;6.50;93.20;;;;;;5001865;28;20243;-81
2020/12/06 02:53:06;;;;;;;38.00;24.47;;;6.60;93.20;;;;;;4986043;28;20209;-83
2020/12/06 02:55:35;;;;;;;35.03;20.23;;;6.60;93.10;;;;;;4979379;28;20215;-82
2020/12/06 02:58:03;;;;;;;35.80;22.77;;;6.80;93.10;;;;;;4983083;28;20196;-83
2020/12/06 03:00:31;;;;;;;36.90;22.47;;;6.70;93.00;;;;;;4986732;28;20193;-81
2020/12/06 03:02:59;;;;;;;37.53;23.83;;;6.70;93.00;;;;;;4977263;28;20225;-82
2020/12/06 03:05:28;;;;;;;38.63;23.93;;;6.70;92.90;;;;;;4999700;28;20201;-82
2020/12/06 03:07:56;;;;;;;38.63;23.63;;;6.70;92.90;;;;;;4977087;28;20525;-82
2020/12/06 03:10:24;;;;;;;38.90;23.47;;;6.70;92.90;;;;;;4992817;28;20854;-81
2020/12/06 03:12:53;;;;;;;37.50;24.07;;;6.60;92.90;;;;;;4990711;28;20206;-82
2020/12/06 03:15:21;;;;;;;36.07;22.90;;;6.70;92.90;;;;;;4990942;28;20228;-84
2020/12/06 03:17:52;;;;;;;33.63;21.33;;;6.70;92.90;;;;;;4994957;28;20599;-84
2020/12/06 03:20:21;;;;;;;31.60;20.80;;;6.70;92.90;;;;;;4991180;28;20588;-81
2020/12/06 03:22:48;;;;;;;39.07;23.27;;;6.70;92.80;;;;;;4992610;28;20243;-82
2020/12/06 03:25:16;;;;;;;36.20;21.57;;;6.70;92.80;;;;;;4995649;28;20228;-82
2020/12/06 03:27:44;;;;;;;36.67;22.20;;;6.70;92.80;;;;;;4975774;28;20949;-84
2020/12/06 03:30:13;;;;;;;34.67;21.20;;;6.70;92.70;;;;;;4990711;28;20460;-82
2020/12/06 03:32:40;;;;;;;34.83;22.93;;;6.80;92.70;;;;;;4988616;28;20538;-81
2020/12/06 03:35:09;;;;;;;32.73;20.27;;;6.80;92.70;;;;;;4992478;28;20205;-83
2020/12/06 03:37:37;;;;;;;35.77;23.20;;;6.70;92.60;;;;;;4989925;28;20247;-83
2020/12/06 03:40:05;;;;;;;31.83;22.13;;;6.80;92.50;;;;;;4988622;28;20327;-83
2020/12/06 03:42:34;;;;;;;32.93;22.17;;;6.80;92.50;;;;;;4990265;28;20750;-82
2020/12/06 03:45:03;;;;;;;34.83;22.40;;;6.90;92.60;;;;;;4984791;28;20209;-82
2020/12/06 03:47:32;;;;;;;36.53;22.30;;;6.70;92.50;;;;;;4983412;28;20235;-80
2020/12/06 03:50:00;;;;;;;34.63;22.10;;;6.80;92.50;;;;;;4982007;28;20291;-81
2020/12/06 03:52:28;;;;;;;32.73;21.33;;;6.80;92.50;;;;;;4987673;28;20214;-81
2020/12/06 03:54:55;;;;;;;32.07;21.67;;;6.80;92.40;;;;;;5002171;28;20204;-83
2020/12/06 03:57:29;;;;;;;33.80;21.10;;;6.80;92.40;;;;;;4993443;28;20220;-81
2020/12/06 03:59:57;;;;;;;22.67;14.13;;;6.80;92.40;;;;;;4986634;28;20197;-83
2020/12/06 04:02:25;;;;;;;31.53;21.30;;;6.80;92.40;;;;;;4988980;28;20223;-83
2020/12/06 04:04:54;;;;;;;33.20;22.10;;;6.80;92.30;;;;;;4991546;28;20201;-82
2020/12/06 04:07:22;;;;;;;31.60;18.50;;;6.80;92.40;;;;;;4997778;28;20247;-82
2020/12/06 04:09:50;;;;;;;32.33;21.57;;;7.00;92.40;;;;;;5001813;28;20459;-82
2020/12/06 04:12:18;;;;;;;30.07;17.10;;;6.80;92.30;;;;;;5000745;28;20188;-80
2020/12/06 04:14:46;;;;;;;33.23;21.00;;;6.80;92.30;;;;;;5005098;28;20219;-83
2020/12/06 04:17:14;;;;;;;28.53;19.97;;;6.80;92.30;;;;;;4994307;28;20212;-82
2020/12/06 04:19:42;;;;;;;30.60;20.87;;;6.70;92.20;;;;;;5005135;28;20268;-82
2020/12/06 04:22:10;;;;;;;31.00;18.53;;;6.70;92.20;;;;;;5001732;28;20435;-81
2020/12/06 04:24:38;;;;;;;30.10;20.33;;;6.70;92.20;;;;;;5001677;28;20209;-80
2020/12/06 04:27:05;;;;;;;28.70;19.50;;;6.70;92.10;;;;;;4997916;28;20863;-82
2020/12/06 04:29:33;;;;;;;29.10;19.30;;;6.70;92.10;;;;;;4990339;28;20217;-86
2020/12/06 04:32:01;;;;;;;30.37;20.50;;;6.70;92.10;;;;;;4995333;28;20205;-82
2020/12/06 04:34:28;;;;;;;30.10;19.53;;;6.70;92.10;;;;;;4985157;28;20213;-82
2020/12/06 04:36:56;;;;;;;30.90;20.20;;;6.70;92.10;;;;;;4983531;28;20208;-84
2020/12/06 04:39:25;;;;;;;30.30;20.37;;;6.70;92.20;;;;;;4982615;28;20207;-83
2020/12/06 04:41:52;;;;;;;25.83;18.63;;;6.60;92.20;;;;;;4985156;28;20219;-82
2020/12/06 04:44:20;;;;;;;29.13;19.10;;;6.60;92.20;;;;;;4985994;28;20235;-81
2020/12/06 04:46:49;;;;;;;31.33;21.10;;;6.60;92.20;;;;;;4989729;28;20353;-83
2020/12/06 04:49:29;;;;;;;29.47;19.57;;;6.60;92.10;;;;;;4986862;28;20201;-82
2020/12/06 04:51:58;;;;;;;27.87;19.57;;;6.50;92.10;;;;;;4985857;28;20283;-82
2020/12/06 04:54:37;;;;;;;30.27;19.77;;;6.60;92.10;;;;;;5000125;28;20201;-79
2020/12/06 04:57:06;;;;;;;28.63;18.63;;;6.50;92.10;;;;;;4994470;28;20661;-83
2020/12/06 04:59:38;;;;;;;22.77;15.03;;;6.50;92.10;;;;;;4983024;28;20197;-84
2020/12/06 05:02:10;;;;;;;26.73;18.67;;;6.50;92.00;;;;;;4987356;28;20204;-81
2020/12/06 05:04:42;;;;;;;26.97;19.40;;;6.50;92.00;;;;;;4999642;28;20555;-81
2020/12/06 05:07:11;;;;;;;25.93;18.47;;;6.60;92.00;;;;;;4990900;28;20228;-83
2020/12/06 05:09:42;;;;;;;25.83;19.43;;;6.60;92.00;;;;;;4991440;28;20478;-83
2020/12/06 05:12:10;;;;;;;26.43;17.87;;;6.50;92.00;;;;;;4996955;28;20200;-82
2020/12/06 05:14:38;;;;;;;28.30;19.23;;;6.40;92.00;;;;;;4989844;28;20439;-82
2020/12/06 05:17:10;;;;;;;28.53;19.87;;;6.40;92.00;;;;;;4983668;28;20205;-82
2020/12/06 05:19:38;;;;;;;30.17;18.80;;;6.40;92.00;;;;;;4987553;28;20287;-84
2020/12/06 05:22:09;;;;;;;29.63;19.93;;;6.30;92.00;;;;;;4991228;28;20208;-80
2020/12/06 05:24:37;;;;;;;25.53;17.90;;;6.30;92.10;;;;;;4997959;28;20206;-83
2020/12/06 05:27:06;;;;;;;23.13;16.30;;;6.30;92.00;;;;;;4997790;28;20239;-83
2020/12/06 05:29:43;;;;;;;26.00;17.73;;;6.30;92.00;;;;;;4997070;28;20208;-81
2020/12/06 05:32:10;;;;;;;25.50;17.00;;;6.30;91.80;;;;;;5006415;28;20184;-85
2020/12/06 05:34:43;;;;;;;23.43;16.87;;;6.30;91.80;;;;;;5006262;28;20197;-82
2020/12/06 05:37:10;;;;;;;23.63;15.20;;;6.30;91.80;;;;;;5003064;28;20207;-81
2020/12/06 05:39:37;;;;;;;22.60;16.73;;;6.30;91.80;;;;;;5007239;28;20294;-82
2020/12/06 05:42:08;;;;;;;24.87;18.47;;;6.30;91.80;;;;;;5004765;28;20200;-83
2020/12/06 05:44:36;;;;;;;23.70;16.67;;;6.30;91.80;;;;;;5005702;28;20204;-81
2020/12/06 05:47:13;;;;;;;23.77;16.73;;;6.30;91.80;;;;;;5006807;28;20215;-83
2020/12/06 05:49:44;;;;;;;25.03;17.23;;;6.20;91.80;;;;;;5005187;28;20372;-85
2020/12/06 05:52:12;;;;;;;24.77;18.07;;;6.20;91.80;;;;;;5007792;28;20192;-82
2020/12/06 05:54:40;;;;;;;26.10;18.03;;;6.20;91.90;;;;;;4991415;28;20220;-81
2020/12/06 05:57:11;;;;;;;21.70;16.20;;;6.20;91.90;;;;;;4980253;28;20221;-84
2020/12/06 05:59:39;;;;;;;26.80;17.73;;;6.00;91.90;;;;;;4985110;28;20210;-82
2020/12/06 06:02:08;;;;;;;25.53;17.70;;;6.20;91.90;;;;;;4990062;28;20204;-82
2020/12/06 06:04:40;;;;;;;25.60;17.23;;;6.20;91.90;;;;;;4979820;28;20224;-82
2020/12/06 06:07:15;;;;;;;24.80;15.97;;;6.10;91.80;;;;;;4985415;28;20315;-81
2020/12/06 06:09:45;;;;;;;24.23;16.90;;;6.30;91.90;;;;;;4990359;28;20195;-84
2020/12/06 06:12:29;;;;;;;23.87;17.13;;;6.10;91.80;;;;;;4983068;28;20654;-82
2020/12/06 06:14:59;;;;;;;23.60;16.37;;;6.10;91.80;;;;;;4990274;28;20218;-84
2020/12/06 06:17:29;;;;;;;23.57;17.37;;;6.10;91.80;;;;;;4978520;28;20219;-82
2020/12/06 06:19:58;;;;;;;23.37;17.00;;;6.10;91.70;;;;;;4981609;28;20247;-80
2020/12/06 06:22:33;;;;;;;21.80;16.17;;;6.00;91.70;;;;;;4989271;28;20204;-81
2020/12/06 06:25:05;;;;;;;21.57;16.27;;;6.00;91.60;;;;;;4975628;28;20209;-82
2020/12/06 06:27:38;;;;;;;23.40;16.23;;;6.00;91.50;;;;;;4983351;28;20235;-81
2020/12/06 06:30:07;;;;;;;23.10;15.70;;;6.00;91.50;;;;;;4987928;28;20213;-82
2020/12/06 06:32:35;;;;;;;21.77;15.77;;;6.00;91.60;;;;;;4981399;28;20210;-82
2020/12/06 06:35:04;;;;;;;20.57;14.17;;;6.00;91.50;;;;;;4985616;28;20263;-81
2020/12/06 06:37:33;;;;;;;21.90;15.97;;;6.00;91.50;;;;;;4993232;28;20228;-81
2020/12/06 06:40:03;;;;;;;20.93;16.70;;;5.90;91.50;;;;;;4996557;28;20282;-81
2020/12/06 06:42:37;;;;;;;21.63;16.17;;;5.90;91.60;;;;;;4989320;28;20242;-82
2020/12/06 06:45:06;;;;;;;23.17;17.07;;;5.90;91.60;;;;;;4990956;28;20214;-82
2020/12/06 06:47:36;;;;;;;21.03;15.93;;;5.90;91.60;;;;;;4984036;28;20246;-85
2020/12/06 06:50:06;;;;;;;24.67;17.00;;;5.90;91.60;;;;;;4980836;28;20206;-84
2020/12/06 06:52:35;;;;;;;21.80;16.23;;;5.90;91.60;;;;;;4982164;28;20192;-83
2020/12/06 06:55:05;;;;;;;21.37;16.07;;;5.90;91.70;;;;;;4982905;28;20208;-83
2020/12/06 06:57:33;;;;;;;20.43;14.40;;;6.10;91.60;;;;;;4981599;28;20665;-82
2020/12/06 07:00:03;;;;;;;21.67;15.90;;;6.10;91.60;;;;;;4991843;28;20825;-81
2020/12/06 07:02:33;;;;;;;21.07;16.70;;;5.90;91.50;;;;;;4996322;28;20521;-83
2020/12/06 07:05:04;;;;;;;23.27;16.07;;;5.90;91.50;;;;;;5002044;28;20623;-84
2020/12/06 07:07:45;;;;;;;21.83;16.50;;;6.10;91.50;;;;;;4998393;28;20263;-83
2020/12/06 07:10:15;;;;;;;20.47;16.30;;;5.90;91.60;;;;;;4982891;28;20208;-83
2020/12/06 07:12:51;;;;;;;18.13;13.90;;;5.90;91.50;;;;;;4991991;28;20211;-83
2020/12/06 07:15:23;;;;;;;19.77;15.30;;;5.90;91.60;;;;;;4979274;28;20314;-84
2020/12/06 07:17:52;;;;;;;21.27;16.20;;;5.90;91.50;;;;;;4986773;28;20331;-83
2020/12/06 07:20:23;;;;;;;23.43;16.03;;;5.90;91.50;;;;;;4990620;28;20199;-83
2020/12/06 07:22:52;;;;;;;21.97;16.43;;;5.90;91.50;;;;;;4978712;28;20243;-85
2020/12/06 07:25:22;;;;;;;18.47;15.60;;;5.90;91.50;;;;;;4983842;28;20371;-81
2020/12/06 07:27:50;;;;;;;21.90;15.43;;;5.80;91.50;;;;;;4979051;28;20233;-82
2020/12/06 07:30:21;;;;;;;21.17;15.77;;;5.80;91.50;;;;;;4984700;28;20626;-83
2020/12/06 07:32:49;;;;;;;20.20;15.80;;;5.80;91.50;;;;;;4990503;28;20197;-83
2020/12/06 07:35:23;;;;;;;20.80;15.90;;;5.80;91.50;;;;;;4981639;28;20208;-83
2020/12/06 07:37:56;;;;;;;19.97;16.33;;;5.80;91.60;;;;;;4989026;28;20298;-84
2020/12/06 07:40:24;;;;;;;21.40;15.77;;;5.80;91.50;;;;;;4985279;28;20213;-83
2020/12/06 07:42:53;;;;;;;19.27;14.60;;;5.80;91.40;;;;;;4988699;28;20912;-79
2020/12/06 07:45:25;;;;;;;19.97;15.10;;;5.80;91.40;;;;;;4987423;28;20188;-82
2020/12/06 07:47:54;;;;;;;19.47;14.00;;;5.70;91.40;;;;;;4986617;28;20739;-84
2020/12/06 07:50:22;;;;;;;18.43;14.63;;;5.60;91.30;;;;;;4981848;28;20196;-82
2020/12/06 07:52:49;;;;;;;19.47;14.77;;;5.70;91.30;;;;;;4994707;28;20223;-82
2020/12/06 07:55:18;;;;;;;18.57;13.40;;;5.80;91.30;;;;;;4982186;28;20216;-84
2020/12/06 07:57:50;;;;;;;18.43;14.13;;;5.80;91.30;;;;;;4971729;28;20209;-82
2020/12/06 08:00:23;;;;;;;19.77;15.23;;;5.80;91.20;;;;;;4975115;28;20208;-81
2020/12/06 08:02:57;;;;;;;16.50;13.00;;;5.80;91.20;;;;;;4979864;28;20252;-81
2020/12/06 08:05:28;;;;;;;17.63;14.00;;;5.80;91.10;;;;;;4990719;28;20202;-81
2020/12/06 08:07:58;;;;;;;15.77;13.40;;;5.80;90.90;;;;;;4986509;28;20246;-81
2020/12/06 08:10:33;;;;;;;17.97;13.70;;;5.80;91.00;;;;;;4996907;28;20197;-81
2020/12/06 08:13:02;;;;;;;16.50;12.83;;;5.80;90.90;;;;;;5000070;28;20536;-82
2020/12/06 08:15:34;;;;;;;13.67;11.30;;;5.80;90.90;;;;;;4989336;28;20201;-84
2020/12/06 08:18:11;;;;;;;15.97;12.30;;;5.80;90.80;;;;;;4994586;28;20193;-83
2020/12/06 08:20:39;;;;;;;16.57;13.17;;;5.80;90.80;;;;;;4980694;28;20208;-83
2020/12/06 08:23:07;;;;;;;16.30;12.63;;;5.80;90.90;;;;;;4977742;28;20217;-83
2020/12/06 08:25:47;;;;;;;16.77;12.70;;;5.80;90.90;;;;;;4987565;28;20203;-83
2020/12/06 08:28:20;;;;;;;16.47;12.00;;;5.80;90.90;;;;;;5005502;23;20271;-82
2020/12/06 08:30:48;;;;;;;15.83;12.60;;;5.80;90.80;;;;;;5007021;28;20210;-82
2020/12/06 08:33:24;;;;;;;15.40;11.83;;;5.80;90.90;;;;;;5006099;28;20297;-84
2020/12/06 08:35:56;;;;;;;16.77;13.10;;;5.80;90.80;;;;;;5008672;28;20191;-81
2020/12/06 08:38:26;;;;;;;18.00;13.50;;;5.80;90.80;;;;;;4991567;28;20196;-85
2020/12/06 08:41:09;;;;;;;14.30;12.37;;;5.80;90.80;;;;;;5010778;28;20204;-83
2020/12/06 08:43:45;;;;;;;16.43;12.87;;;6.00;90.70;;;;;;5011437;28;20184;-82
2020/12/06 08:46:15;;;;;;;14.70;10.80;;;5.80;90.80;;;;;;5005620;28;20199;-84
2020/12/06 08:48:45;;;;;;;18.23;12.43;;;5.80;90.80;;;;;;5001923;28;20232;-80
2020/12/06 08:51:28;;;;;;;14.50;12.10;;;5.70;90.70;;;;;;5044974;23;20283;-81
2020/12/06 08:53:59;;;;;;;17.13;13.00;;;5.80;90.70;;;;;;5002738;28;20204;-80
2020/12/06 08:56:29;;;;;;;17.60;12.33;;;5.70;90.80;;;;;;5018309;28;20188;-82
2020/12/06 08:59:06;;;;;;;17.27;13.90;;;5.70;90.60;;;;;;4990005;28;20210;-82
2020/12/06 09:01:46;;;;;;;17.93;13.27;;;5.70;90.70;;;;;;4993373;28;20203;-82
2020/12/06 09:04:16;;;;;;;16.63;12.97;;;5.80;90.70;;;;;;4984946;28;20246;-82
2020/12/06 09:06:44;;;;;;;17.73;12.67;;;5.80;90.60;;;;;;4979733;28;20208;-83
2020/12/06 09:09:12;;;;;;;16.30;12.57;;;5.80;90.60;;;;;;4987456;28;20258;-83
2020/12/06 09:11:41;;;;;;;18.13;13.30;;;5.70;90.50;;;;;;4982965;28;20717;-81
2020/12/06 09:14:13;;;;;;;16.53;12.13;;;5.70;90.60;;;;;;4992510;28;20208;-83
2020/12/06 09:16:41;;;;;;;13.70;11.40;;;5.60;90.60;;;;;;4988320;28;20271;-81
2020/12/06 09:19:11;;;;;;;16.27;12.60;;;5.60;90.60;;;;;;4996813;28;20196;-83
2020/12/06 09:21:40;;;;;;;16.90;12.60;;;5.60;90.70;;;;;;5004645;28;20205;-81
2020/12/06 09:24:08;;;;;;;15.63;11.50;;;5.50;90.60;;;;;;4992610;28;20782;-84
2020/12/06 09:26:36;;;;;;;14.20;11.33;;;5.60;90.70;;;;;;4998323;28;20267;-81
2020/12/06 09:29:03;;;;;;;17.03;12.93;;;5.60;90.60;;;;;;4999912;28;20529;-83
2020/12/06 09:31:32;;;;;;;11.60;10.07;;;5.50;90.60;;;;;;4980079;28;20222;-82
2020/12/06 09:34:00;;;;;;;17.33;13.07;;;5.50;90.60;;;;;;4991524;28;20928;-82
2020/12/06 09:36:29;;;;;;;15.37;11.97;;;5.70;90.70;;;;;;4992828;28;20207;-80
2020/12/06 09:38:58;;;;;;;15.80;12.07;;;5.50;90.60;;;;;;5002641;28;20331;-83
2020/12/06 09:41:25;;;;;;;15.83;11.63;;;5.50;90.50;;;;;;5009538;28;20199;-81
2020/12/06 09:43:53;;;;;;;16.60;13.50;;;5.60;90.60;;;;;;4980905;28;20652;-84
2020/12/06 09:46:22;;;;;;;15.17;11.87;;;5.60;90.50;;;;;;4991728;28;20521;-84
2020/12/06 09:48:50;;;;;;;15.97;12.23;;;5.50;90.40;;;;;;4991923;28;20767;-82
2020/12/06 09:51:18;;;;;;;14.60;10.90;;;5.60;90.40;;;;;;4990528;28;20707;-83
2020/12/06 09:53:48;;;;;;;14.70;11.17;;;5.60;90.40;;;;;;5008182;28;20263;-83
2020/12/06 09:56:17;;;;;;;14.33;11.77;;;5.50;90.30;;;;;;4991554;28;20200;-82
2020/12/06 09:58:45;;;;;;;15.33;12.70;;;5.50;90.40;;;;;;5007096;28;20307;-84
2020/12/06 10:01:12;;;;;;;15.90;12.27;;;5.50;90.40;;;;;;5008953;28;20506;-81
2020/12/06 10:03:40;;;;;;;14.97;12.67;;;5.60;90.30;;;;;;5008995;28;20594;-81
2020/12/06 10:06:09;;;;;;;14.67;12.30;;;5.60;90.30;;;;;;5009414;28;20224;-82
2020/12/06 10:08:39;;;;;;;16.20;12.83;;;5.60;90.20;;;;;;5005057;28;20296;-80
2020/12/06 10:11:11;;;;;;;14.10;11.47;;;5.60;90.20;;;;;;4999196;28;20208;-82
2020/12/06 10:13:40;;;;;;;14.93;11.70;;;5.70;90.20;;;;;;4993391;28;20258;-83
2020/12/06 10:16:12;;;;;;;18.40;12.73;;;5.60;90.10;;;;;;4992458;28;20369;-80
2020/12/06 10:18:39;;;;;;;16.07;12.43;;;5.50;90.20;;;;;;4999523;28;20550;-83
2020/12/06 10:21:07;;;;;;;14.80;12.33;;;5.50;90.30;;;;;;4986582;28;20250;-82
2020/12/06 10:23:36;;;;;;;16.23;12.53;;;5.50;90.30;;;;;;4989359;28;20196;-85
2020/12/06 10:26:04;;;;;;;14.73;12.07;;;5.50;90.20;;;;;;4998533;28;20203;-81
2020/12/06 10:28:32;;;;;;;15.03;12.27;;;5.50;90.30;;;;;;4968471;28;20235;-83
2020/12/06 10:31:01;;;;;;;14.17;11.03;;;5.50;90.20;;;;;;4987728;28;20240;-84
2020/12/06 10:33:29;;;;;;;16.00;11.33;;;5.50;90.20;;;;;;5004818;28;20204;-82
2020/12/06 10:35:57;;;;;;;15.30;12.03;;;5.50;90.20;;;;;;4995598;28;20259;-82
2020/12/06 10:38:25;;;;;;;14.97;11.40;;;5.40;90.30;;;;;;4999321;28;20277;-82
2020/12/06 10:40:53;;;;;;;13.13;9.57;;;5.40;90.20;;;;;;4970670;28;20251;-85
2020/12/06 10:43:21;;;;;;;18.30;11.80;;;5.40;90.30;;;;;;4990428;28;20257;-83
2020/12/06 10:45:49;;;;;;;13.33;10.10;;;5.40;90.40;;;;;;4987958;28;20598;-82
2020/12/06 10:48:19;;;;;;;15.13;12.23;;;5.40;90.40;;;;;;4984586;28;20227;-82
2020/12/06 10:50:51;;;;;;;13.17;10.53;;;5.40;90.40;;;;;;4991783;28;20192;-82
2020/12/06 10:53:20;;;;;;;16.40;12.33;;;5.40;90.40;;;;;;4997983;28;20204;-81
2020/12/06 10:55:49;;;;;;;15.93;11.87;;;5.40;90.30;;;;;;4996971;28;20722;-82
2020/12/06 10:58:18;;;;;;;13.93;10.07;;;5.50;90.20;;;;;;4961189;28;20197;-83
2020/12/06 11:00:46;;;;;;;16.73;12.00;;;5.50;90.20;;;;;;4995189;28;20208;-81
2020/12/06 11:03:19;;;;;;;14.93;11.33;;;5.50;90.00;;;;;;4996283;28;20200;-81
2020/12/06 11:05:52;;;;;;;15.03;11.87;;;5.40;90.20;;;;;;4982949;28;20499;-82
2020/12/06 11:08:21;;;;;;;15.73;11.80;;;5.40;90.10;;;;;;5001271;28;20216;-83
2020/12/06 11:10:50;;;;;;;18.10;12.50;;;5.40;90.10;;;;;;4983373;28;20263;-83
2020/12/06 11:13:18;;;;;;;23.03;13.47;;;5.40;90.00;;;;;;4985023;28;20254;-80
2020/12/06 11:15:48;;;;;;;14.90;12.10;;;5.40;90.20;;;;;;4995912;28;20207;-80
2020/12/06 11:18:19;;;;;;;17.63;12.53;;;5.40;90.10;;;;;;4995236;28;20333;-82
2020/12/06 11:20:50;;;;;;;18.10;12.63;;;5.50;90.10;;;;;;5010585;28;20188;-83
2020/12/06 11:23:21;;;;;;;17.23;12.30;;;5.50;90.10;;;;;;5007608;28;20428;-84
2020/12/06 11:25:49;;;;;;;17.27;11.70;;;5.50;90.00;;;;;;5011057;28;20193;-80
2020/12/06 11:28:17;;;;;;;18.00;13.43;;;5.50;90.00;;;;;;4994453;28;20229;-83
2020/12/06 11:30:46;;;;;;;16.57;12.70;;;5.60;89.90;;;;;;5008377;28;20180;-84
2020/12/06 11:33:15;;;;;;;16.07;12.47;;;5.50;89.90;;;;;;5009492;28;20587;-86
2020/12/06 11:35:45;;;;;;;19.87;13.17;;;5.60;89.80;;;;;;5002252;28;20235;-81
2020/12/06 11:38:16;;;;;;;16.93;13.27;;;5.50;89.80;;;;;;5002781;28;20224;-81
2020/12/06 11:40:44;;;;;;;18.33;13.37;;;5.50;89.70;;;;;;5011154;28;20180;-85
2020/12/06 11:43:18;;;;;;;17.90;12.97;;;5.50;89.80;;;;;;5008654;28;20246;-83
2020/12/06 11:45:46;;;;;;;18.60;13.63;;;5.60;89.70;;;;;;5009972;28;20201;-83
2020/12/06 11:48:14;;;;;;;18.93;12.83;;;5.70;90.00;;;;;;4988200;28;20824;-82
2020/12/06 11:50:43;;;;;;;23.63;13.80;;;5.60;89.60;;;;;;4989133;28;20200;-82
2020/12/06 11:53:11;;;;;;;20.17;13.27;;;5.60;89.50;;;;;;4988916;28;20215;-82
2020/12/06 11:55:40;;;;;;;17.97;13.60;;;5.50;89.50;;;;;;4973104;28;20365;-85
2020/12/06 11:58:08;;;;;;;20.10;12.63;;;5.50;89.50;;;;;;4988551;28;20208;-84
2020/12/06 12:00:35;;;;;;;19.13;13.27;;;5.50;89.60;;;;;;4992589;28;20204;-83
2020/12/06 12:03:03;;;;;;;18.20;12.50;;;5.50;89.70;;;;;;4999480;28;20260;-81
2020/12/06 12:05:32;;;;;;;22.43;13.97;;;5.40;89.70;;;;;;4994029;28;20268;-79
2020/12/06 12:07:59;;;;;;;24.10;15.00;;;5.40;89.80;;;;;;4986430;28;20216;-83
2020/12/06 12:10:27;;;;;;;20.97;14.07;;;5.40;89.80;;;;;;4976730;28;20588;-81
2020/12/06 12:12:56;;;;;;;19.97;13.47;;;5.30;89.80;;;;;;4995092;28;20583;-80
2020/12/06 12:15:24;;;;;;;22.30;15.20;;;5.20;89.80;;;;;;4979340;28;20236;-84
2020/12/06 12:17:52;;;;;;;20.97;15.57;;;5.30;90.00;;;;;;4997418;28;20207;-84
2020/12/06 12:20:21;;;;;;;24.40;16.63;;;5.30;90.00;;;;;;4970885;28;20525;-82
2020/12/06 12:22:49;;;;;;;24.50;17.07;;;5.30;90.00;;;;;;4992096;28;20216;-83
2020/12/06 12:25:17;;;;;;;31.73;18.93;;;5.50;90.00;;;;;;4998382;28;20226;-84
2020/12/06 12:27:49;;;;;;;20.03;15.53;;;5.30;89.90;;;;;;4987360;28;20736;-82
2020/12/06 12:30:19;;;;;;;23.77;15.57;;;5.40;89.80;;;;;;4976232;28;20196;-85
2020/12/06 12:32:47;;;;;;;16.77;11.67;;;5.40;89.90;;;;;;4991727;28;20218;-81
2020/12/06 12:35:17;;;;;;;19.53;13.97;;;5.50;89.40;;;;;;4987713;28;20219;-84
2020/12/06 12:37:45;;;;;;;23.17;15.67;;;5.50;89.20;;;;;;4993816;28;20266;-81
2020/12/06 12:40:18;;;;;;;18.77;13.87;;;5.50;89.30;;;;;;4967008;28;20936;-83
2020/12/06 12:42:47;;;;;;;19.53;13.10;;;5.50;88.90;;;;;;4996403;28;20645;-84
2020/12/06 12:45:20;;;;;;;19.20;13.63;;;5.50;89.00;;;;;;4992040;28;20265;-83
2020/12/06 12:47:52;;;;;;;18.37;13.20;;;5.50;88.90;;;;;;5007619;28;20207;-81